TimeMDT,TemperatureF,Dew PointF,Humidity,Sea Level PressureIn,VisibilityMPH,Wind Direction,Wind SpeedMPH,Gust SpeedMPH,PrecipitationIn,Events,Conditions,WindDirDegrees,DateUTC
12:15 AM,35.6,15.8,44,29.93,10.0,Calm,Calm,-,N/A,,Mostly Cloudy,0,2013-03-19 06:15:00
12:35 AM,33.8,14.0,44,29.94,10.0,ENE,8.1,-,N/A,,Partly Cloudy,70,2013-03-19 06:35:00
12:55 AM,33.8,14.0,44,29.93,10.0,East,5.8,-,N/A,,Clear,80,2013-03-19 06:55:00
1:15 AM,30.2,14.0,51,29.94,10.0,Calm,Calm,-,N/A,,Clear,0,2013-03-19 07:15:00
1:35 AM,30.2,14.0,51,29.94,10.0,East,3.5,-,N/A,,Clear,90,2013-03-19 07:35:00
1:55 AM,28.4,14.0,55,29.95,10.0,ESE,4.6,-,N/A,,Clear,110,2013-03-19 07:55:00
2:15 AM,26.6,14.0,59,29.96,10.0,NE,4.6,-,N/A,,Clear,50,2013-03-19 08:15:00
2:35 AM,24.8,12.2,59,29.96,9.0,Calm,Calm,-,N/A,,Clear,0,2013-03-19 08:35:00
2:55 AM,24.8,12.2,59,29.96,10.0,ENE,3.5,-,N/A,,Clear,70,2013-03-19 08:55:00
3:15 AM,24.8,12.2,59,29.96,10.0,East,6.9,-,N/A,,Clear,100,2013-03-19 09:15:00
3:55 AM,24.8,12.2,59,29.96,10.0,Calm,Calm,-,N/A,,Clear,0,2013-03-19 09:55:00
4:15 AM,21.2,10.4,63,29.96,10.0,NNE,3.5,-,N/A,,Clear,30,2013-03-19 10:15:00
4:55 AM,21.2,10.4,63,29.98,10.0,North,4.6,-,N/A,,Clear,360,2013-03-19 10:55:00
5:15 AM,19.4,10.4,68,29.98,10.0,NW,5.8,-,N/A,,Clear,320,2013-03-19 11:15:00
5:35 AM,23.0,12.2,63,29.99,10.0,North,13.8,-,N/A,,Clear,360,2013-03-19 11:35:00
5:55 AM,21.2,12.2,68,30.00,10.0,North,9.2,-,N/A,,Clear,350,2013-03-19 11:55:00
6:15 AM,26.6,14.0,59,30.02,10.0,North,11.5,-,N/A,,Clear,350,2013-03-19 12:15:00
6:35 AM,30.2,12.2,47,30.04,10.0,NNW,12.7,-,N/A,,Clear,340,2013-03-19 12:35:00
6:55 AM,30.2,10.4,44,30.06,10.0,NNW,15.0,-,N/A,,Clear,340,2013-03-19 12:55:00
7:35 AM,28.4,12.2,51,30.10,10.0,North,17.3,-,N/A,,Clear,10,2013-03-19 13:35:00
8:15 AM,30.2,17.6,60,30.12,10.0,North,15.0,-,N/A,,Clear,360,2013-03-19 14:15:00
8:35 AM,32.0,17.6,55,30.12,10.0,North,18.4,-,N/A,,Clear,360,2013-03-19 14:35:00
8:55 AM,33.8,19.4,56,30.12,10.0,North,19.6,-,N/A,,Clear,10,2013-03-19 14:55:00
9:35 AM,37.4,17.6,45,30.11,10.0,North,24.2,28.8,N/A,,Clear,10,2013-03-19 15:35:00
9:55 AM,39.2,15.8,39,30.11,10.0,North,20.7,25.3,N/A,,Clear,360,2013-03-19 15:55:00
10:15 AM,41.0,15.8,36,30.11,10.0,NNE,18.4,-,N/A,,Clear,20,2013-03-19 16:15:00
10:35 AM,42.8,12.2,29,30.11,10.0,North,17.3,-,N/A,,Clear,10,2013-03-19 16:35:00
10:55 AM,44.6,12.2,27,30.10,10.0,North,15.0,21.9,N/A,,Clear,360,2013-03-19 16:55:00
11:15 AM,48.2,6.8,19,30.10,10.0,North,18.4,27.6,N/A,,Clear,350,2013-03-19 17:15:00
11:35 AM,48.2,3.2,16,30.09,10.0,NNW,20.7,29.9,N/A,,Clear,330,2013-03-19 17:35:00
12:15 PM,51.8,1.4,13,30.08,10.0,NNW,20.7,32.2,N/A,,Clear,330,2013-03-19 18:15:00
12:35 PM,51.8,-0.4,12,30.07,10.0,NNW,23.0,31.1,N/A,,Clear,330,2013-03-19 18:35:00
12:55 PM,51.8,-0.4,12,30.07,10.0,NNW,19.6,38.0,N/A,,Clear,330,2013-03-19 18:55:00
1:15 PM,53.6,-0.4,11,30.07,10.0,NNW,28.8,41.4,N/A,,Clear,330,2013-03-19 19:15:00
1:35 PM,53.6,-0.4,11,30.07,10.0,NNW,24.2,34.5,N/A,,Clear,330,2013-03-19 19:35:00
1:55 PM,53.6,-0.4,11,30.07,10.0,NW,21.9,34.5,N/A,,Clear,310,2013-03-19 19:55:00
2:15 PM,53.6,-0.4,11,30.06,10.0,NW,25.3,34.5,N/A,,Clear,320,2013-03-19 20:15:00
2:35 PM,53.6,-0.4,11,30.06,10.0,WNW,20.7,34.5,N/A,,Clear,300,2013-03-19 20:35:00
2:55 PM,53.6,-0.4,11,30.06,10.0,NW,12.7,33.4,N/A,,Clear,310,2013-03-19 20:55:00
3:15 PM,53.6,-0.4,11,30.06,10.0,WNW,23.0,31.1,N/A,,Clear,290,2013-03-19 21:15:00
3:35 PM,53.6,-0.4,11,30.07,10.0,WNW,17.3,31.1,N/A,,Clear,300,2013-03-19 21:35:00
3:55 PM,53.6,1.4,12,30.07,10.0,NW,18.4,25.3,N/A,,Clear,310,2013-03-19 21:55:00
4:15 PM,55.4,1.4,11,30.08,10.0,NW,17.3,27.6,N/A,,Clear,310,2013-03-19 22:15:00
4:35 PM,55.4,1.4,11,30.08,10.0,NW,18.4,27.6,N/A,,Clear,320,2013-03-19 22:35:00
4:55 PM,53.6,1.4,12,30.09,10.0,NW,19.6,23.0,N/A,,Clear,320,2013-03-19 22:55:00
5:15 PM,53.6,-0.4,11,30.09,10.0,NNW,16.1,21.9,N/A,,Clear,330,2013-03-19 23:15:00
5:55 PM,53.6,-0.4,11,30.11,10.0,NW,16.1,-,N/A,,Clear,310,2013-03-19 23:55:00
6:15 PM,51.8,-0.4,12,30.12,10.0,NW,13.8,21.9,N/A,,Clear,320,2013-03-20 00:15:00
6:35 PM,51.8,-0.4,12,30.13,10.0,WNW,10.4,-,N/A,,Clear,290,2013-03-20 00:35:00
6:55 PM,48.2,-0.4,13,30.16,10.0,NE,13.8,-,N/A,,Clear,40,2013-03-20 00:55:00
7:15 PM,42.8,3.2,19,30.18,10.0,NE,21.9,29.9,N/A,,Scattered Clouds,50,2013-03-20 01:15:00
7:35 PM,37.4,10.4,33,30.19,10.0,NE,13.8,24.2,N/A,,Partly Cloudy,50,2013-03-20 01:35:00
7:55 PM,37.4,10.4,33,30.21,10.0,NE,17.3,-,N/A,,Clear,40,2013-03-20 01:55:00
8:35 PM,33.8,14.0,44,30.27,10.0,NE,16.1,-,N/A,,Clear,50,2013-03-20 02:35:00
8:55 PM,32.0,15.8,51,30.29,10.0,ENE,10.4,-,N/A,,Clear,60,2013-03-20 02:55:00
9:15 PM,30.2,15.8,55,30.30,10.0,NE,11.5,-,N/A,,Clear,50,2013-03-20 03:15:00
9:35 PM,30.2,15.8,55,30.32,10.0,NE,6.9,-,N/A,,Clear,50,2013-03-20 03:35:00
9:55 PM,28.4,14.0,55,30.33,10.0,ENE,3.5,-,N/A,,Clear,70,2013-03-20 03:55:00
10:15 PM,26.6,14.0,59,30.35,10.0,Calm,Calm,-,N/A,,Clear,0,2013-03-20 04:15:00
10:35 PM,26.6,14.0,59,30.36,10.0,Calm,Calm,-,N/A,,Clear,0,2013-03-20 04:35:00
10:55 PM,23.0,12.2,63,30.35,10.0,North,3.5,-,N/A,,Clear,360,2013-03-20 04:55:00
11:15 PM,24.8,14.0,64,30.36,10.0,Calm,Calm,-,N/A,,Clear,0,2013-03-20 05:15:00
11:55 PM,24.8,15.8,69,30.36,10.0,Calm,Calm,-,N/A,,Clear,0,2013-03-20 05:55:00